Weather History for Cairo, IL

Change the Weather History Date:

Monday, February 18, 2013

  Actual Average Record
Temperature  
Mean Temperature 50 °F -  
Max Temperature 59 °F 47 °F 73 °F (1961)
Min Temperature 42 °F 32 °F 6 °F (1993)
Degree Days  
Heating Degree Days 14    
Moisture  
Dew Point 40 °F    
Average Humidity 69    
Maximum Humidity 88    
Minimum Humidity 48    
Precipitation  
Precipitation 0.40 in - - ()
Sea Level Pressure  
Sea Level Pressure 29.88 in    
Wind  
Wind Speed 14 mph (South)    
Max Wind Speed 25 mph    
Max Gust Speed 37 mph    
Visibility 9 miles    
Events Rain , Thunderstorm    
Averages and records for this station are not official NWS values.
T = Trace of Precipitation, MM = Missing Value Source: NWS Daily Summary

Daily Weather History Graph

Daily Weather History Graph

Search for Another Location

Airport:

Trip Planner

Search our weather history database for the weather conditions in past years. The results will help you decide how hot, cold, wet, or windy it might be!

Date:

Astronomy

Feb. 18, 2013 Rise Set
Actual Time 6:41 AM CST 5:40 PM CST
Civil Twilight 6:15 AM CST 6:06 PM CST
Nautical Twilight 5:44 AM CST 6:37 PM CST
Astronomical Twilight 5:14 AM CST 7:07 PM CST
Moon 11:30 AM CST (2/18) 1:17 AM CST (2/18)
Length of Visible Light 11h 51m
Length of Day
10h 58m
First Quarter, 58% of the Moon is Illuminated
Feb 18
First Quarter
Feb 25
Full
Mar 4
Last Quarter
Mar 11
New
Mar 19
First Quarter

Hourly Weather History & Observations

Time (CST) Temp. Windchill Dew Point Humidity Pressure Visibility Wind Dir Wind Speed Gust Speed Precip Events Conditions
12:15 AM 44.6 °F 38.8 °F 26.6 °F 49% 30.04 in 10.0 mi SSE 11.5 mph - N/A   Clear
12:35 AM 44.6 °F 39.2 °F 26.6 °F 49% 30.03 in 10.0 mi SSE 10.4 mph - N/A   Clear
12:55 AM 42.8 °F 37.0 °F 28.4 °F 57% 30.02 in 10.0 mi SSE 10.4 mph - N/A   Clear
1:15 AM 44.6 °F 38.8 °F 28.4 °F 53% 30.02 in 10.0 mi SSE 11.5 mph - N/A   Clear
1:35 AM 44.6 °F 38.4 °F 28.4 °F 53% 30.02 in 10.0 mi SSE 12.7 mph 18.4 mph N/A   Clear
1:55 AM 44.6 °F 38.4 °F 28.4 °F 53% 30.01 in 10.0 mi SSE 12.7 mph - N/A   Clear
2:15 AM 44.6 °F 38.4 °F 28.4 °F 53% 30.01 in 10.0 mi SSE 12.7 mph - N/A   Clear
2:35 AM 44.6 °F 39.7 °F 30.2 °F 57% 30.00 in 10.0 mi South 9.2 mph 18.4 mph N/A   Clear
2:55 AM 44.6 °F 38.1 °F 30.2 °F 57% 30.00 in 10.0 mi South 13.8 mph 18.4 mph N/A   Clear
3:15 AM 44.6 °F 38.8 °F 30.2 °F 57% 30.00 in 10.0 mi South 11.5 mph - N/A   Clear
3:35 AM 44.6 °F 38.8 °F 32.0 °F 61% 30.00 in 10.0 mi South 11.5 mph 18.4 mph N/A   Clear
3:55 AM 44.6 °F 38.4 °F 32.0 °F 61% 30.00 in 10.0 mi South 12.7 mph 18.4 mph N/A   Clear
4:15 AM 44.6 °F 38.8 °F 32.0 °F 61% 30.01 in 10.0 mi South 11.5 mph 16.1 mph N/A   Clear
4:35 AM 44.6 °F 39.7 °F 32.0 °F 61% 30.01 in 10.0 mi South 9.2 mph - N/A   Clear
4:55 AM 44.6 °F 38.1 °F 32.0 °F 61% 30.00 in 10.0 mi South 13.8 mph 21.9 mph N/A   Clear
5:15 AM 44.6 °F 38.1 °F 32.0 °F 61% 30.00 in 10.0 mi South 13.8 mph - N/A   Clear
5:35 AM 44.6 °F 39.2 °F 33.8 °F 66% 30.00 in 10.0 mi South 10.4 mph - N/A   Clear
5:55 AM 44.6 °F 38.8 °F 33.8 °F 66% 30.00 in 10.0 mi South 11.5 mph - N/A   Clear
6:15 AM 44.6 °F 39.2 °F 35.6 °F 71% 30.00 in 10.0 mi South 10.4 mph 17.3 mph N/A   Clear
6:35 AM 44.6 °F 38.4 °F 33.8 °F 66% 30.00 in 10.0 mi South 12.7 mph - N/A   Clear
6:55 AM 44.6 °F 38.8 °F 33.8 °F 66% 30.00 in 10.0 mi South 11.5 mph 17.3 mph N/A   Clear
7:15 AM 44.6 °F 38.4 °F 33.8 °F 66% 30.00 in 10.0 mi South 12.7 mph 18.4 mph N/A   Clear
7:35 AM 44.6 °F 38.4 °F 35.6 °F 71% 30.00 in 10.0 mi South 12.7 mph 18.4 mph N/A   Clear
7:55 AM 46.4 °F 40.4 °F 37.4 °F 71% 30.00 in 10.0 mi South 13.8 mph 17.3 mph N/A   Clear
8:35 AM 50.0 °F - 39.2 °F 66% 30.00 in 10.0 mi South 11.5 mph 18.4 mph N/A   Clear
8:55 AM 51.8 °F - 39.2 °F 62% 29.99 in 10.0 mi South 17.3 mph 23.0 mph N/A   Clear
9:15 AM 53.6 °F - 41.0 °F 62% 29.98 in 10.0 mi South 17.3 mph 27.6 mph N/A   Clear
9:35 AM 53.6 °F - 41.0 °F 62% 29.96 in 10.0 mi South 19.6 mph 35.7 mph N/A   Scattered Clouds
9:55 AM 55.4 °F - 41.0 °F 58% 29.95 in 10.0 mi South 24.2 mph 33.4 mph N/A   Scattered Clouds
10:15 AM 57.2 °F - 41.0 °F 55% 29.95 in 10.0 mi South 19.6 mph 31.1 mph N/A   Mostly Cloudy
10:35 AM 59.0 °F - 41.0 °F 51% 29.95 in 10.0 mi South 21.9 mph 29.9 mph N/A   Overcast
10:55 AM 59.0 °F - 39.2 °F 48% 29.94 in 10.0 mi South 16.1 mph 34.5 mph N/A   Overcast
11:15 AM 59.0 °F - 41.0 °F 51% 29.93 in 10.0 mi South 25.3 mph 36.8 mph N/A   Overcast
11:35 AM 57.2 °F - 41.0 °F 55% 29.92 in 10.0 mi South 18.4 mph 32.2 mph N/A   Overcast
11:55 AM 59.0 °F - 42.8 °F 55% 29.91 in 10.0 mi South 20.7 mph 28.8 mph N/A   Overcast
12:15 PM 59.0 °F - 42.8 °F 55% 29.89 in 10.0 mi South 21.9 mph 34.5 mph N/A   Overcast
12:35 PM 57.2 °F - 41.0 °F 55% 29.88 in 10.0 mi South 18.4 mph 33.4 mph N/A   Overcast
12:55 PM 57.2 °F - 41.0 °F 55% 29.88 in 10.0 mi South 17.3 mph 24.2 mph N/A   Overcast
1:15 PM 55.4 °F - 41.0 °F 58% 29.87 in 10.0 mi South 13.8 mph 26.5 mph N/A Rain Light Rain
1:35 PM 53.6 °F - 44.6 °F 72% 29.86 in 10.0 mi South 10.4 mph 21.9 mph 0.01 in Rain Rain
1:55 PM 53.6 °F - 44.6 °F 72% 29.84 in 10.0 mi South 11.5 mph 19.6 mph 0.03 in Rain Light Rain
2:15 PM 53.6 °F - 46.4 °F 77% 29.83 in 10.0 mi South 13.8 mph 20.7 mph N/A   Light Drizzle
2:35 PM 53.6 °F - 46.4 °F 77% 29.81 in 5.0 mi SSE 16.1 mph 24.2 mph 0.01 in Rain Rain
2:55 PM 53.6 °F - 46.4 °F 77% 29.80 in 7.0 mi SSE 19.6 mph 25.3 mph 0.02 in Rain , Thunderstorm Rain
3:15 PM 53.6 °F - 46.4 °F 77% 29.79 in 5.0 mi South 18.4 mph 31.1 mph 0.01 in Rain , Thunderstorm Light Thunderstorms and Rain
3:35 PM 51.8 °F - 46.4 °F 82% 29.77 in 5.0 mi SSE 21.9 mph 31.1 mph 0.03 in Rain , Thunderstorm Light Thunderstorms and Rain
3:55 PM 51.8 °F - 46.4 °F 82% 29.75 in 10.0 mi SSE 19.6 mph 29.9 mph 0.03 in Rain , Thunderstorm Light Thunderstorms and Rain
4:15 PM 51.8 °F - 46.4 °F 82% 29.75 in 10.0 mi SSE 15.0 mph 23.0 mph N/A Rain , Thunderstorm Light Thunderstorms and Rain
4:35 PM 51.8 °F - 46.4 °F 82% 29.72 in 10.0 mi SSE 21.9 mph 29.9 mph 0.01 in Rain , Thunderstorm Light Thunderstorms and Rain
4:55 PM 53.6 °F - 48.2 °F 82% 29.73 in 5.0 mi South 19.6 mph 28.8 mph 0.03 in Rain , Thunderstorm Thunderstorms and Rain
5:15 PM 51.8 °F - 46.4 °F 82% 29.72 in 10.0 mi SSE 18.4 mph 21.9 mph 0.01 in Rain Light Rain
5:35 PM 51.8 °F - 46.4 °F 82% 29.72 in 10.0 mi SSE 19.6 mph 25.3 mph 0.02 in Thunderstorm Unknown
5:55 PM 51.8 °F - 46.4 °F 82% 29.71 in 5.0 mi SSE 21.9 mph 27.6 mph 0.08 in Rain Heavy Rain
6:15 PM 51.8 °F - 48.2 °F 88% 29.71 in 5.0 mi SSE 17.3 mph 24.2 mph 0.05 in Rain Rain
6:35 PM 51.8 °F - 48.2 °F 88% 29.69 in 10.0 mi SSE 18.4 mph 23.0 mph 0.05 in   Overcast
6:55 PM 53.6 °F - 48.2 °F 82% 29.69 in 7.0 mi SSE 21.9 mph 28.8 mph 0.05 in Rain Rain
7:15 PM 51.8 °F - 48.2 °F 88% 29.68 in 10.0 mi South 20.7 mph 31.1 mph 0.01 in Rain Rain
7:35 PM 51.8 °F - 46.4 °F 82% 29.77 in 3.0 mi SSW 25.3 mph 35.7 mph 0.10 in Rain , Thunderstorm Heavy Thunderstorms and Rain
7:55 PM 48.2 °F - 42.8 °F 82% 29.72 in 4.0 mi South 13.8 mph 23.0 mph 0.16 in   Unknown
8:15 PM 48.2 °F - 44.6 °F 87% 29.72 in 10.0 mi South 11.5 mph - N/A   Overcast
8:35 PM 51.8 °F - 46.4 °F 82% 29.72 in 10.0 mi South 12.7 mph 17.3 mph N/A   Overcast
8:55 PM 51.8 °F - 46.4 °F 82% 29.72 in 10.0 mi South 10.4 mph - N/A   Overcast
9:15 PM 51.8 °F - 48.2 °F 88% 29.74 in 10.0 mi SSW 12.7 mph - N/A   Overcast
9:35 PM 53.6 °F - 48.2 °F 82% 29.75 in 10.0 mi SW 11.5 mph 21.9 mph N/A   Overcast
9:55 PM 53.6 °F - 48.2 °F 82% 29.77 in 10.0 mi West 24.2 mph 28.8 mph N/A   Overcast
10:15 PM 50.0 °F - 42.8 °F 76% 29.80 in 10.0 mi WNW 20.7 mph 32.2 mph N/A   Overcast
10:35 PM 48.2 °F - 42.8 °F 82% 29.83 in 10.0 mi WNW 19.6 mph 29.9 mph N/A   Overcast
10:55 PM 46.4 °F 40.1 °F 41.0 °F 81% 29.85 in 10.0 mi WNW 15.0 mph - N/A   Overcast
11:15 PM 46.4 °F 39.8 °F 41.0 °F 81% 29.87 in 10.0 mi WNW 16.1 mph 20.7 mph N/A   Overcast
11:35 PM 46.4 °F 39.2 °F 39.2 °F 76% 29.88 in 10.0 mi WNW 18.4 mph 25.3 mph N/A   Overcast
11:55 PM 44.6 °F 36.9 °F 37.4 °F 76% 29.90 in 10.0 mi WNW 18.4 mph 24.2 mph N/A   Overcast